createdAt,value
2018-07-11T00:01:11.540Z,17.93
2018-07-11T00:03:45.044Z,16.20
2018-07-11T00:06:15.180Z,15.67
2018-07-11T00:08:44.101Z,17.07
2018-07-11T00:11:13.359Z,16.93
2018-07-11T00:13:43.703Z,15.50
2018-07-11T00:16:13.192Z,16.50
2018-07-11T00:18:42.080Z,16.73
2018-07-11T00:21:11.002Z,15.90
2018-07-11T00:23:39.926Z,17.77
2018-07-11T00:26:09.927Z,17.13
2018-07-11T00:28:38.812Z,17.43
2018-07-11T00:31:07.712Z,17.07
2018-07-11T00:33:36.626Z,17.00
2018-07-11T00:36:05.616Z,19.50
2018-07-11T00:38:34.533Z,15.63
2018-07-11T00:41:03.843Z,19.10
2018-07-11T00:43:34.569Z,18.03
2018-07-11T00:46:04.525Z,20.70
2018-07-11T00:48:33.690Z,18.20
2018-07-11T00:51:03.187Z,20.63
2018-07-11T00:53:34.743Z,21.90
2018-07-11T00:56:03.651Z,21.67
2018-07-11T00:58:35.179Z,23.93
2018-07-11T01:01:12.992Z,22.97
2018-07-11T01:03:45.276Z,24.17
2018-07-11T01:06:14.237Z,21.73
2018-07-11T01:08:43.129Z,22.57
2018-07-11T01:11:14.483Z,23.53
2018-07-11T01:13:45.537Z,22.43
2018-07-11T01:16:16.269Z,22.27
2018-07-11T01:18:47.915Z,22.93
2018-07-11T01:21:16.876Z,22.53
2018-07-11T01:23:45.775Z,23.67
2018-07-11T01:26:16.146Z,23.30
2018-07-11T01:28:45.065Z,23.80
2018-07-11T01:31:14.060Z,21.70
2018-07-11T01:33:42.987Z,23.93
2018-07-11T01:36:11.881Z,22.40
2018-07-11T01:38:40.845Z,23.57
2018-07-11T01:41:09.755Z,22.70
2018-07-11T01:43:38.700Z,24.47
2018-07-11T01:46:07.665Z,25.13
2018-07-11T01:48:36.584Z,23.93
2018-07-11T01:51:05.513Z,24.30
2018-07-11T01:53:34.416Z,23.87
2018-07-11T01:56:03.325Z,23.47
2018-07-11T01:58:32.305Z,25.47
2018-07-11T02:01:01.216Z,27.10
2018-07-11T02:03:30.135Z,25.87
2018-07-11T02:05:59.029Z,26.00
2018-07-11T02:08:27.983Z,25.23
2018-07-11T02:10:57.522Z,28.03
2018-07-11T02:13:26.517Z,37.63
2018-07-11T02:15:55.419Z,27.03
2018-07-11T02:18:26.009Z,26.43
2018-07-11T02:20:55.714Z,29.73
2018-07-11T02:23:24.804Z,30.27
2018-07-11T02:25:53.723Z,30.57
2018-07-11T02:28:22.688Z,25.30
2018-07-11T02:30:51.821Z,28.10
2018-07-11T02:33:20.774Z,31.00
2018-07-11T02:35:49.669Z,27.63
2018-07-11T02:38:18.594Z,32.83
2018-07-11T02:40:47.551Z,26.73
2018-07-11T02:43:16.467Z,27.30
2018-07-11T02:45:45.385Z,36.33
2018-07-11T02:48:14.285Z,27.60
2018-07-11T02:50:43.183Z,35.03
2018-07-11T02:53:17.623Z,38.30
2018-07-11T02:55:46.675Z,30.67
2018-07-11T02:58:15.683Z,31.37
2018-07-11T03:00:44.634Z,31.43
2018-07-11T03:03:13.524Z,30.17
2018-07-11T03:05:42.561Z,42.60
2018-07-11T03:08:11.826Z,36.40
2018-07-11T03:10:41.014Z,34.00
2018-07-11T03:13:09.963Z,29.90
2018-07-11T03:15:38.866Z,28.77
2018-07-11T03:18:07.788Z,37.47
2018-07-11T03:20:36.878Z,38.90
2018-07-11T03:23:05.976Z,35.33
2018-07-11T03:25:34.865Z,32.63
2018-07-11T03:28:03.836Z,35.03
2018-07-11T03:30:32.762Z,37.00
2018-07-11T03:33:01.663Z,38.63
2018-07-11T03:35:30.560Z,38.83
2018-07-11T03:37:59.455Z,36.93
2018-07-11T03:40:28.382Z,35.47
2018-07-11T03:42:57.280Z,38.77
2018-07-11T03:45:26.200Z,38.60
2018-07-11T03:47:55.083Z,38.03
2018-07-11T03:50:24.001Z,38.63
2018-07-11T03:52:52.936Z,40.23
2018-07-11T03:55:21.836Z,39.40
2018-07-11T03:57:50.787Z,37.67
2018-07-11T04:00:19.769Z,39.97
2018-07-11T04:02:48.656Z,43.67
2018-07-11T04:05:17.554Z,45.17
2018-07-11T04:07:46.465Z,47.53
2018-07-11T04:10:15.355Z,47.83
2018-07-11T04:12:44.308Z,41.87
2018-07-11T04:15:13.203Z,56.87
2018-07-11T04:17:42.099Z,30.83
2018-07-11T04:20:11.000Z,41.20
2018-07-11T04:22:39.942Z,36.43
2018-07-11T04:25:08.853Z,36.40
2018-07-11T04:27:37.759Z,36.97
2018-07-11T04:30:06.670Z,36.60
2018-07-11T04:32:35.607Z,38.73
2018-07-11T04:35:04.543Z,38.13
2018-07-11T04:37:33.443Z,38.80
2018-07-11T04:40:02.337Z,37.47
2018-07-11T04:42:31.260Z,32.57
2018-07-11T04:45:01.110Z,26.13
2018-07-11T04:47:30.008Z,30.77
2018-07-11T04:49:58.908Z,27.53
2018-07-11T04:52:27.836Z,37.23
2018-07-11T04:54:56.730Z,34.10
2018-07-11T04:57:25.643Z,30.10
2018-07-11T04:59:54.547Z,36.67
2018-07-11T05:02:23.527Z,38.97
2018-07-11T05:04:52.655Z,29.83
2018-07-11T05:07:21.628Z,36.00
2018-07-11T05:09:50.540Z,34.70
2018-07-11T05:12:19.505Z,35.37
2018-07-11T05:14:48.482Z,37.93
2018-07-11T05:17:17.400Z,37.50
2018-07-11T05:19:46.317Z,36.67
2018-07-11T05:22:15.236Z,39.17
2018-07-11T05:24:44.144Z,46.27
2018-07-11T05:27:13.069Z,41.63
2018-07-11T05:29:42.028Z,37.70
2018-07-11T05:32:10.947Z,36.13
2018-07-11T05:34:39.859Z,37.23
2018-07-11T05:37:08.755Z,38.57
2018-07-11T05:39:37.656Z,40.30
2018-07-11T05:42:06.567Z,35.63
2018-07-11T05:44:35.568Z,38.67
2018-07-11T05:47:05.671Z,45.43
2018-07-11T05:49:35.459Z,38.37
2018-07-11T05:52:04.671Z,33.53
2018-07-11T05:54:34.668Z,33.10
2018-07-11T05:57:03.764Z,37.53
2018-07-11T05:59:32.640Z,32.20
2018-07-11T06:02:01.603Z,34.00
2018-07-11T06:04:30.499Z,31.83
2018-07-11T06:06:59.395Z,31.27
2018-07-11T06:09:28.299Z,27.83
2018-07-11T06:11:57.184Z,28.53
2018-07-11T06:14:26.071Z,25.67
2018-07-11T06:16:54.997Z,28.70
2018-07-11T06:19:23.963Z,27.57
2018-07-11T06:21:52.900Z,26.47
2018-07-11T06:24:21.940Z,29.40
2018-07-11T06:26:50.877Z,27.87
2018-07-11T06:29:19.803Z,31.80
2018-07-11T06:31:48.796Z,30.70
2018-07-11T06:34:17.732Z,26.87
2018-07-11T06:36:46.776Z,26.83
2018-07-11T06:39:15.733Z,26.70
2018-07-11T06:41:44.660Z,30.63
2018-07-11T06:44:13.623Z,27.50
2018-07-11T06:46:42.578Z,26.83
2018-07-11T06:49:11.515Z,27.80
2018-07-11T06:51:40.483Z,26.63
2018-07-11T06:54:09.407Z,25.40
2018-07-11T06:56:38.396Z,23.87
2018-07-11T06:59:07.396Z,24.60
2018-07-11T07:01:36.366Z,24.50
2018-07-11T07:04:05.338Z,24.20
2018-07-11T07:06:34.301Z,24.20
2018-07-11T07:09:03.237Z,22.87
2018-07-11T07:11:32.174Z,21.13
2018-07-11T07:14:01.092Z,14.77
2018-07-11T07:16:30.114Z,13.93
2018-07-11T07:18:59.002Z,15.10
2018-07-11T07:21:27.920Z,15.17
2018-07-11T07:23:56.883Z,15.97
2018-07-11T07:26:25.879Z,14.97
2018-07-11T07:28:54.826Z,13.57
2018-07-11T07:31:23.777Z,12.80
2018-07-11T07:33:52.699Z,13.27
2018-07-11T07:36:21.661Z,12.63
2018-07-11T07:38:50.586Z,11.90
2018-07-11T07:41:19.590Z,13.10
2018-07-11T07:43:48.540Z,12.00
2018-07-11T07:46:17.560Z,11.47
2018-07-11T07:48:46.629Z,11.20
2018-07-11T07:51:15.626Z,10.93
2018-07-11T07:53:44.576Z,10.60
2018-07-11T07:56:13.498Z,8.80
2018-07-11T07:58:42.386Z,8.60
2018-07-11T08:01:11.348Z,8.67
2018-07-11T08:03:40.287Z,9.67
2018-07-11T08:06:09.217Z,9.47
2018-07-11T08:08:38.201Z,9.70
2018-07-11T08:11:07.124Z,8.73
2018-07-11T08:13:36.064Z,6.70
2018-07-11T08:16:05.020Z,6.13
2018-07-11T08:18:34.214Z,6.20
2018-07-11T08:21:03.139Z,5.43
2018-07-11T08:23:43.517Z,5.00
2018-07-11T08:26:24.504Z,5.17
2018-07-11T08:31:22.108Z,3.50
2018-07-11T08:34:12.784Z,4.37
2018-07-11T08:36:52.021Z,4.70
2018-07-11T08:42:35.760Z,4.43
2018-07-11T08:45:13.788Z,7.00
2018-07-11T08:47:53.869Z,7.00
2018-07-11T08:50:37.973Z,6.77
2018-07-11T08:55:18.994Z,8.13
2018-07-11T09:00:04.865Z,7.20
2018-07-11T09:02:47.693Z,6.23
2018-07-11T09:05:28.227Z,5.37
2018-07-11T09:10:10.564Z,4.87
2018-07-11T09:13:00.456Z,5.73
2018-07-11T09:15:41.696Z,7.60
2018-07-11T09:18:35.502Z,5.30
2018-07-11T09:21:14.655Z,5.93
2018-07-11T09:24:48.153Z,4.20
2018-07-11T09:27:17.049Z,4.57
2018-07-11T09:29:46.647Z,7.03
2018-07-11T09:32:15.964Z,4.27
2018-07-11T09:34:45.351Z,4.37
2018-07-11T09:37:14.256Z,5.20
2018-07-11T09:39:43.647Z,5.23
2018-07-11T09:42:12.591Z,4.53
2018-07-11T09:44:41.503Z,4.40
2018-07-11T09:47:15.799Z,5.10
2018-07-11T09:49:44.684Z,5.07
2018-07-11T09:52:13.838Z,5.87
2018-07-11T09:54:42.743Z,6.43
2018-07-11T09:57:11.891Z,4.63
2018-07-11T09:59:40.825Z,4.50
2018-07-11T10:02:10.094Z,6.03
2018-07-11T10:04:39.029Z,5.60
2018-07-11T10:07:07.976Z,4.93
2018-07-11T10:09:36.878Z,4.37
2018-07-11T10:12:05.869Z,6.07
2018-07-11T10:14:34.748Z,5.63
2018-07-11T10:17:03.678Z,5.23
2018-07-11T10:19:32.596Z,5.30
2018-07-11T10:22:01.507Z,4.67
2018-07-11T10:24:30.442Z,4.97
2018-07-11T10:26:59.392Z,4.27
2018-07-11T10:29:28.886Z,5.33
2018-07-11T10:31:57.852Z,5.27
2018-07-11T10:34:26.812Z,6.67
2018-07-11T10:36:55.777Z,3.83
2018-07-11T10:39:24.748Z,3.60
2018-07-11T10:41:53.714Z,3.73
2018-07-11T10:44:22.633Z,4.77
2018-07-11T10:46:55.756Z,3.80
2018-07-11T10:49:24.864Z,3.93
2018-07-11T10:51:53.787Z,3.47
2018-07-11T10:54:22.736Z,4.83
2018-07-11T10:56:51.785Z,3.67
2018-07-11T10:59:20.714Z,3.90
2018-07-11T11:01:49.669Z,3.23
2018-07-11T11:04:20.180Z,3.10
2018-07-11T11:06:49.124Z,3.10
2018-07-11T11:09:18.063Z,2.97
2018-07-11T11:11:47.104Z,2.90
2018-07-11T11:14:16.038Z,3.60
2018-07-11T11:16:44.951Z,3.23
2018-07-11T11:19:13.871Z,2.17
2018-07-11T11:21:42.836Z,2.73
2018-07-11T11:24:11.790Z,2.47
2018-07-11T11:26:40.713Z,2.53
2018-07-11T11:29:09.653Z,3.03
2018-07-11T11:31:38.641Z,3.10
2018-07-11T11:34:07.619Z,4.20
2018-07-11T11:36:36.527Z,5.47
2018-07-11T11:39:05.491Z,3.20
2018-07-11T11:41:34.519Z,3.33
2018-07-11T11:44:03.810Z,3.27
2018-07-11T11:46:32.787Z,3.30
2018-07-11T11:49:01.776Z,2.97
2018-07-11T11:51:30.776Z,3.47
2018-07-11T11:53:59.734Z,3.10
2018-07-11T11:56:28.640Z,3.20
2018-07-11T11:58:57.592Z,3.53
2018-07-11T12:01:26.542Z,3.20
2018-07-11T12:03:55.461Z,5.93
2018-07-11T12:06:24.475Z,2.47
2018-07-11T12:08:53.417Z,3.67
2018-07-11T12:11:22.405Z,3.50
2018-07-11T12:13:51.733Z,3.40
2018-07-11T12:16:20.656Z,3.23
2018-07-11T12:18:49.564Z,3.43
2018-07-11T12:21:18.602Z,3.00
2018-07-11T12:23:47.664Z,3.97
2018-07-11T12:26:17.524Z,3.63
2018-07-11T12:28:46.430Z,5.00
2018-07-11T12:31:15.410Z,4.65
2018-07-11T12:33:44.300Z,4.70
2018-07-11T12:36:13.193Z,4.42
2018-07-11T12:38:42.236Z,4.03
2018-07-11T12:41:11.289Z,3.70
2018-07-11T12:43:40.283Z,3.40
2018-07-11T12:46:09.092Z,4.97
2018-07-11T12:48:43.353Z,5.53
2018-07-11T12:51:14.616Z,5.20
2018-07-11T12:53:43.538Z,5.43
2018-07-11T12:56:12.575Z,5.43
2018-07-11T12:58:41.451Z,5.30
2018-07-11T13:01:10.356Z,5.20
2018-07-11T13:03:39.260Z,5.30
2018-07-11T13:06:08.414Z,7.27
2018-07-11T13:08:37.341Z,5.33
2018-07-11T13:11:06.602Z,7.73
2018-07-11T13:13:35.631Z,5.60
2018-07-11T13:16:04.600Z,4.23
2018-07-11T13:18:33.438Z,4.40
2018-07-11T13:21:02.530Z,4.53
2018-07-11T13:23:31.430Z,4.93
2018-07-11T13:26:00.322Z,4.87
2018-07-11T13:28:29.238Z,5.77
2018-07-11T13:30:58.185Z,5.13
2018-07-11T13:33:27.103Z,5.20
2018-07-11T13:35:56.006Z,5.23
2018-07-11T13:38:24.880Z,5.93
2018-07-11T13:40:53.768Z,7.23
2018-07-11T13:43:22.668Z,6.60
2018-07-11T13:45:51.556Z,5.20
2018-07-11T13:48:20.475Z,5.60
2018-07-11T13:50:49.834Z,5.40
2018-07-11T13:53:18.733Z,5.00
2018-07-11T13:55:47.761Z,5.70
2018-07-11T13:58:17.295Z,4.93
2018-07-11T14:00:46.474Z,7.07
2018-07-11T14:03:15.379Z,4.87
2018-07-11T14:05:44.679Z,6.33
2018-07-11T14:08:13.574Z,6.77
2018-07-11T14:10:42.462Z,7.30
2018-07-11T14:13:11.365Z,6.83
2018-07-11T14:15:40.285Z,9.63
2018-07-11T14:18:09.248Z,6.30
2018-07-11T14:20:38.173Z,7.30
2018-07-11T14:23:08.353Z,6.60
2018-07-11T14:25:38.044Z,8.07
2018-07-11T14:28:06.974Z,9.13
2018-07-11T14:30:36.935Z,8.67
2018-07-11T14:33:07.567Z,6.30
2018-07-11T14:35:36.770Z,7.27
2018-07-11T14:38:05.676Z,3.70
2018-07-11T14:40:34.555Z,5.77
2018-07-11T14:43:03.438Z,2.80
2018-07-11T14:45:33.664Z,2.93
2018-07-11T14:48:13.703Z,6.43
2018-07-11T14:50:42.579Z,6.50
2018-07-11T14:53:11.569Z,2.70
2018-07-11T14:55:40.461Z,3.03
2018-07-11T14:58:09.507Z,3.10
2018-07-11T15:00:38.343Z,3.10
2018-07-11T15:03:07.258Z,2.93
2018-07-11T15:08:11.364Z,2.97
2018-07-11T15:10:40.205Z,3.40
2018-07-11T15:13:09.100Z,3.10
2018-07-11T15:15:37.995Z,3.60
2018-07-11T15:18:06.881Z,4.87
2018-07-11T15:20:35.848Z,3.40
2018-07-11T15:23:04.725Z,3.57
2018-07-11T15:25:33.626Z,3.40
2018-07-11T15:28:02.557Z,3.13
2018-07-11T15:30:31.466Z,3.13
2018-07-11T15:33:00.390Z,3.33
2018-07-11T15:35:29.280Z,3.40
2018-07-11T15:37:58.168Z,2.73
2018-07-11T15:40:27.055Z,2.90
2018-07-11T15:42:55.943Z,3.00
2018-07-11T15:45:24.883Z,2.90
2018-07-11T15:47:53.725Z,2.50
2018-07-11T15:50:22.611Z,2.73
2018-07-11T15:52:51.711Z,3.17
2018-07-11T15:55:20.607Z,3.37
2018-07-11T15:57:51.685Z,3.67
2018-07-11T16:00:24.925Z,3.93
2018-07-11T16:02:54.871Z,4.90
2018-07-11T16:05:25.301Z,3.63
2018-07-11T16:07:54.708Z,4.10
2018-07-11T16:10:27.901Z,5.63
2018-07-11T16:12:56.806Z,5.13
2018-07-11T16:15:25.696Z,4.27
2018-07-11T16:17:54.590Z,4.33
2018-07-11T16:20:23.479Z,4.50
2018-07-11T16:22:52.347Z,4.10
2018-07-11T16:25:21.585Z,4.37
2018-07-11T16:27:50.471Z,9.37
2018-07-11T16:30:19.383Z,4.37
2018-07-11T16:32:48.275Z,4.90
2018-07-11T16:35:17.170Z,5.27
2018-07-11T16:37:46.073Z,5.80
2018-07-11T16:40:15.023Z,3.70
2018-07-11T16:42:43.921Z,3.33
2018-07-11T16:45:12.860Z,3.90
2018-07-11T16:47:43.194Z,3.33
2018-07-11T16:50:12.244Z,3.23
2018-07-11T16:52:41.162Z,4.43
2018-07-11T16:55:10.041Z,3.30
2018-07-11T16:57:44.864Z,3.23
2018-07-11T17:00:13.772Z,3.10
2018-07-11T17:02:44.349Z,2.83
2018-07-11T17:05:17.340Z,3.23
2018-07-11T17:07:50.758Z,3.30
2018-07-11T17:10:21.145Z,3.80
2018-07-11T17:12:53.828Z,3.07
2018-07-11T17:15:24.555Z,3.73
2018-07-11T17:17:55.008Z,3.13
2018-07-11T17:20:24.411Z,4.30
2018-07-11T17:22:55.629Z,4.27
2018-07-11T17:25:28.708Z,8.03
2018-07-11T17:28:00.271Z,5.03
2018-07-11T17:30:36.544Z,4.17
2018-07-11T17:33:06.956Z,4.33
2018-07-11T17:35:36.417Z,2.90
2018-07-11T17:38:07.164Z,3.20
2018-07-11T17:40:38.347Z,3.73
2018-07-11T17:43:08.705Z,3.03
2018-07-11T17:45:38.159Z,3.63
2018-07-11T17:49:14.540Z,3.17
2018-07-11T17:51:48.778Z,8.00
2018-07-11T17:54:17.786Z,4.90
2018-07-11T17:57:00.244Z,3.97
2018-07-11T17:59:36.008Z,3.77
2018-07-11T18:02:13.904Z,4.57
2018-07-11T18:05:01.521Z,3.53
2018-07-11T18:07:39.770Z,3.90
2018-07-11T18:10:08.751Z,3.20
2018-07-11T18:12:42.146Z,3.97
2018-07-11T18:15:23.754Z,3.63
2018-07-11T18:18:34.896Z,3.43
2018-07-11T18:21:12.462Z,3.80
2018-07-11T18:23:55.529Z,3.23
2018-07-11T18:26:36.088Z,3.67
2018-07-11T18:33:29.140Z,3.70
2018-07-11T18:36:15.868Z,5.33
2018-07-11T18:38:54.890Z,3.77
2018-07-11T18:41:36.997Z,3.67
2018-07-11T18:44:17.505Z,3.77
2018-07-11T18:47:10.801Z,3.27
2018-07-11T18:50:18.187Z,3.93
2018-07-11T18:52:53.655Z,4.23
2018-07-11T18:55:35.305Z,5.50
2018-07-11T19:00:19.524Z,4.77
2018-07-11T19:05:09.399Z,4.67
2018-07-11T19:08:48.990Z,6.50
2018-07-11T19:11:20.704Z,5.57
2018-07-11T19:13:51.481Z,5.50
2018-07-11T19:17:32.519Z,5.27
2018-07-11T19:20:22.535Z,5.13
2018-07-11T19:23:01.597Z,5.27
2018-07-11T19:25:39.995Z,4.63
2018-07-11T19:28:17.577Z,6.67
2018-07-11T19:30:57.032Z,4.77
2018-07-11T19:33:32.202Z,5.63
2018-07-11T19:36:13.262Z,6.40
2018-07-11T19:39:06.217Z,4.73
2018-07-11T19:41:43.736Z,4.67
2018-07-11T19:44:31.834Z,4.97
2018-07-11T19:47:12.963Z,4.50
2018-07-11T19:49:53.004Z,5.03
2018-07-11T19:52:35.365Z,5.20
2018-07-11T19:55:12.279Z,4.97
2018-07-11T19:57:41.224Z,5.63
2018-07-11T20:00:10.207Z,5.17
2018-07-11T20:02:39.133Z,5.77
2018-07-11T20:05:08.081Z,5.17
2018-07-11T20:07:37.015Z,5.60
2018-07-11T20:10:05.938Z,6.13
2018-07-11T20:12:35.035Z,7.27
2018-07-11T20:15:04.224Z,6.23
2018-07-11T20:17:33.189Z,6.03
2018-07-11T20:20:02.159Z,5.90
2018-07-11T20:22:31.100Z,7.87
2018-07-11T20:25:01.775Z,6.87
2018-07-11T20:27:30.789Z,7.93
2018-07-11T20:29:59.728Z,7.03
2018-07-11T20:32:28.664Z,7.40
2018-07-11T20:34:57.573Z,7.00
2018-07-11T20:37:26.471Z,7.57
2018-07-11T20:39:55.392Z,7.43
2018-07-11T20:42:24.283Z,7.87
2018-07-11T20:44:53.188Z,7.57
2018-07-11T20:47:22.130Z,6.90
2018-07-11T20:49:51.031Z,8.27
2018-07-11T20:52:19.952Z,6.77
2018-07-11T20:54:48.964Z,7.53
2018-07-11T20:57:17.942Z,12.07
2018-07-11T20:59:58.290Z,7.73
2018-07-11T21:02:38.554Z,6.30
2018-07-11T21:05:27.290Z,6.90
2018-07-11T21:08:12.734Z,6.47
2018-07-11T21:10:51.983Z,7.00
2018-07-11T21:14:05.463Z,6.80
2018-07-11T21:18:52.573Z,7.00
2018-07-11T21:21:21.685Z,6.17
2018-07-11T21:23:50.678Z,6.80
2018-07-11T21:26:19.691Z,6.73
2018-07-11T21:28:48.618Z,6.30
2018-07-11T21:31:17.556Z,6.90
2018-07-11T21:33:46.925Z,6.20
2018-07-11T21:36:16.233Z,7.70
2018-07-11T21:38:45.296Z,7.67
2018-07-11T21:41:14.809Z,6.07
2018-07-11T21:43:43.799Z,5.93
2018-07-11T21:46:13.136Z,6.17
2018-07-11T21:48:42.302Z,6.20
2018-07-11T21:51:11.238Z,6.80
2018-07-11T21:53:40.299Z,6.73
2018-07-11T21:56:09.284Z,6.10
2018-07-11T21:58:38.243Z,5.93
2018-07-11T22:01:11.476Z,6.80
2018-07-11T22:03:40.437Z,7.17
2018-07-11T22:06:09.384Z,6.73
2018-07-11T22:08:38.297Z,6.83
2018-07-11T22:11:07.191Z,6.57
2018-07-11T22:13:36.099Z,6.70
2018-07-11T22:16:05.008Z,6.60
2018-07-11T22:18:38.879Z,7.00
2018-07-11T22:21:07.990Z,7.23
2018-07-11T22:23:35.961Z,6.80
2018-07-11T22:26:03.947Z,6.90
2018-07-11T22:28:31.909Z,6.53
2018-07-11T22:30:59.866Z,6.57
2018-07-11T22:33:27.817Z,6.20
2018-07-11T22:35:55.801Z,6.73
2018-07-11T22:38:23.744Z,5.80
2018-07-11T22:40:51.706Z,7.27
2018-07-11T22:43:19.690Z,7.40
2018-07-11T22:45:47.701Z,7.23
2018-07-11T22:48:15.811Z,7.07
2018-07-11T22:50:43.924Z,7.13
2018-07-11T22:53:11.914Z,7.37
2018-07-11T22:55:39.882Z,8.17
2018-07-11T22:58:07.988Z,7.80
2018-07-11T23:00:35.960Z,8.03
2018-07-11T23:03:03.900Z,8.90
2018-07-11T23:05:31.848Z,7.23
2018-07-11T23:07:59.802Z,7.97
2018-07-11T23:10:27.790Z,9.20
2018-07-11T23:12:55.806Z,7.93
2018-07-11T23:15:23.844Z,7.50
2018-07-11T23:17:51.779Z,8.73
2018-07-11T23:20:20.575Z,8.53
2018-07-11T23:22:48.500Z,8.73
2018-07-11T23:25:16.462Z,8.73
2018-07-11T23:27:44.397Z,9.43
2018-07-11T23:30:12.344Z,8.17
2018-07-11T23:32:40.304Z,8.40
2018-07-11T23:35:08.268Z,9.27
2018-07-11T23:37:36.224Z,8.50
2018-07-11T23:40:04.163Z,8.43
2018-07-11T23:42:32.301Z,9.03
2018-07-11T23:45:00.242Z,9.03
2018-07-11T23:47:28.215Z,8.40
2018-07-11T23:49:56.187Z,8.27
2018-07-11T23:52:24.157Z,8.30
2018-07-11T23:54:52.100Z,8.13
2018-07-11T23:57:20.063Z,9.17
2018-07-11T23:59:48.027Z,7.63
